createdAt,value
2022-12-09T00:00:13.125Z,6.68
2022-12-09T00:01:18.833Z,7.22
2022-12-09T00:02:21.370Z,6.72
2022-12-09T00:03:23.956Z,7.15
2022-12-09T00:04:26.265Z,7.72
2022-12-09T00:05:28.718Z,7.38
2022-12-09T00:06:31.311Z,7.20
2022-12-09T00:07:36.950Z,6.70
2022-12-09T00:08:39.300Z,6.72
2022-12-09T00:09:41.257Z,6.75
2022-12-09T00:10:44.336Z,6.80
2022-12-09T00:11:45.958Z,6.97
2022-12-09T00:12:47.918Z,5.20
2022-12-09T00:13:57.356Z,6.50
2022-12-09T00:14:59.199Z,6.93
2022-12-09T00:16:04.842Z,6.70
2022-12-09T00:17:07.770Z,6.30
2022-12-09T00:18:10.599Z,6.25
2022-12-09T00:19:12.972Z,6.10
2022-12-09T00:20:16.447Z,6.40
2022-12-09T00:21:26.657Z,6.53
2022-12-09T00:22:28.871Z,6.00
2022-12-09T00:23:31.071Z,6.45
2022-12-09T00:24:34.248Z,6.22
2022-12-09T00:25:36.334Z,5.75
2022-12-09T00:26:40.994Z,6.40
2022-12-09T00:27:42.772Z,5.80
2022-12-09T00:28:49.491Z,5.80
2022-12-09T00:29:51.366Z,6.03
2022-12-09T00:30:53.100Z,5.65
2022-12-09T00:31:56.763Z,5.85
2022-12-09T00:32:58.573Z,6.60
2022-12-09T00:34:03.189Z,6.40
2022-12-09T00:35:08.103Z,6.05
2022-12-09T00:36:15.539Z,6.30
2022-12-09T00:37:17.838Z,6.50
2022-12-09T00:38:19.728Z,6.20
2022-12-09T00:39:22.049Z,5.72
2022-12-09T00:40:23.941Z,5.85
2022-12-09T00:41:27.501Z,6.15
2022-12-09T00:42:32.318Z,5.75
2022-12-09T00:43:34.231Z,5.53
2022-12-09T00:44:35.862Z,5.90
2022-12-09T00:45:37.437Z,5.50
2022-12-09T00:46:39.363Z,5.70
2022-12-09T00:47:43.874Z,5.70
2022-12-09T00:48:46.193Z,5.75
2022-12-09T00:49:47.823Z,4.90
2022-12-09T00:50:50.068Z,5.60
2022-12-09T00:51:54.665Z,5.57
2022-12-09T00:52:57.113Z,5.32
2022-12-09T00:53:58.950Z,4.93
2022-12-09T00:55:01.047Z,5.72
2022-12-09T00:56:03.183Z,5.25
2022-12-09T00:57:06.462Z,4.90
2022-12-09T00:58:08.699Z,5.57
2022-12-09T00:59:10.789Z,4.13
2022-12-09T01:00:13.308Z,6.40
2022-12-09T01:01:15.659Z,5.20
2022-12-09T01:02:18.466Z,4.63
2022-12-09T01:03:23.390Z,4.93
2022-12-09T01:04:27.564Z,4.30
2022-12-09T01:05:30.575Z,4.70
2022-12-09T01:06:32.180Z,5.22
2022-12-09T01:07:33.957Z,5.10
2022-12-09T01:08:38.956Z,4.75
2022-12-09T01:09:41.376Z,5.28
2022-12-09T01:10:45.262Z,5.63
2022-12-09T01:11:46.935Z,5.55
2022-12-09T01:12:49.929Z,5.43
2022-12-09T01:13:52.984Z,4.80
2022-12-09T01:14:56.593Z,5.00
2022-12-09T01:15:59.079Z,4.57
2022-12-09T01:17:01.063Z,4.95
2022-12-09T01:18:03.815Z,4.35
2022-12-09T01:19:08.380Z,5.05
2022-12-09T01:20:12.591Z,4.70
2022-12-09T01:21:16.222Z,5.53
2022-12-09T01:22:18.066Z,5.25
2022-12-09T01:23:20.076Z,5.57
2022-12-09T01:24:22.675Z,5.25
2022-12-09T01:25:25.267Z,5.00
2022-12-09T01:26:28.095Z,4.97
2022-12-09T01:27:30.803Z,4.93
2022-12-09T01:28:35.314Z,4.93
2022-12-09T01:29:37.237Z,4.97
2022-12-09T01:30:41.236Z,4.80
2022-12-09T01:31:48.233Z,4.78
2022-12-09T01:32:50.194Z,4.97
2022-12-09T01:33:54.163Z,4.90
2022-12-09T01:34:56.101Z,5.07
2022-12-09T01:35:58.029Z,4.80
2022-12-09T01:37:00.886Z,4.30
2022-12-09T01:38:02.694Z,5.43
2022-12-09T01:39:04.889Z,5.05
2022-12-09T01:40:10.884Z,5.57
2022-12-09T01:41:14.465Z,4.63
2022-12-09T01:42:21.631Z,5.20
2022-12-09T01:43:24.578Z,5.85
2022-12-09T01:44:27.904Z,4.22
2022-12-09T01:45:32.839Z,5.00
2022-12-09T01:46:35.538Z,5.20
2022-12-09T01:47:37.742Z,5.05
2022-12-09T01:48:43.588Z,4.40
2022-12-09T01:49:48.444Z,5.53
2022-12-09T01:51:03.398Z,5.05
2022-12-09T01:52:12.535Z,5.03
2022-12-09T01:53:16.763Z,5.10
2022-12-09T01:54:18.760Z,5.10
2022-12-09T01:55:20.883Z,5.20
2022-12-09T01:56:27.195Z,5.68
2022-12-09T01:57:29.614Z,4.97
2022-12-09T01:58:33.294Z,4.78
2022-12-09T01:59:35.379Z,5.78
2022-12-09T02:00:38.657Z,5.40
2022-12-09T02:01:43.260Z,6.60
2022-12-09T02:02:48.896Z,5.32
2022-12-09T02:03:51.162Z,5.65
2022-12-09T02:04:54.281Z,5.10
2022-12-09T02:05:56.800Z,6.30
2022-12-09T02:07:02.624Z,5.85
2022-12-09T02:08:13.259Z,6.40
2022-12-09T02:09:15.354Z,5.82
2022-12-09T02:10:18.692Z,5.45
2022-12-09T02:12:13.117Z,4.72
2022-12-09T02:13:34.435Z,5.00
2022-12-09T02:14:59.012Z,6.00
2022-12-09T02:16:08.426Z,12.20
2022-12-09T02:17:33.834Z,14.00
2022-12-09T02:18:47.120Z,9.80
2022-12-09T02:20:24.268Z,5.55
2022-12-09T02:21:34.682Z,5.80
2022-12-09T02:22:46.501Z,6.20
2022-12-09T02:23:53.737Z,6.32
2022-12-09T02:25:03.475Z,6.20
2022-12-09T02:26:26.719Z,5.57
2022-12-09T02:27:51.099Z,5.85
2022-12-09T02:29:11.958Z,5.75
2022-12-09T02:30:23.374Z,5.75
2022-12-09T02:31:39.572Z,6.20
2022-12-09T02:33:03.573Z,6.50
2022-12-09T02:34:11.193Z,6.10
2022-12-09T02:35:37.727Z,6.22
2022-12-09T02:36:49.382Z,5.57
2022-12-09T02:38:02.837Z,6.32
2022-12-09T02:39:07.007Z,5.72
2022-12-09T02:40:29.681Z,5.88
2022-12-09T02:41:35.433Z,6.07
2022-12-09T02:42:39.367Z,5.63
2022-12-09T02:43:50.289Z,6.40
2022-12-09T02:44:53.289Z,9.95
2022-12-09T02:46:02.227Z,7.68
2022-12-09T02:47:07.292Z,5.65
2022-12-09T02:48:12.966Z,6.40
2022-12-09T02:49:15.890Z,6.10
2022-12-09T02:50:22.344Z,5.10
2022-12-09T02:51:28.593Z,5.78
2022-12-09T02:52:32.239Z,4.93
2022-12-09T02:53:36.463Z,4.88
2022-12-09T02:54:39.682Z,15.13
2022-12-09T02:55:47.167Z,18.23
2022-12-09T02:56:57.104Z,9.85
2022-12-09T02:58:02.336Z,5.03
2022-12-09T02:59:03.960Z,5.65
2022-12-09T03:00:09.204Z,5.15
2022-12-09T03:01:27.311Z,5.68
2022-12-09T03:02:38.156Z,5.55
2022-12-09T03:03:40.451Z,5.50
2022-12-09T03:04:50.589Z,4.80
2022-12-09T03:06:07.386Z,5.30
2022-12-09T03:07:35.369Z,5.10
2022-12-09T03:08:43.959Z,5.68
2022-12-09T03:09:52.919Z,4.95
2022-12-09T03:11:02.256Z,5.47
2022-12-09T03:12:09.132Z,5.13
2022-12-09T03:13:24.842Z,5.22
2022-12-09T03:14:36.653Z,4.63
2022-12-09T03:15:45.472Z,5.00
2022-12-09T03:17:09.562Z,5.20
2022-12-09T03:18:16.210Z,5.85
2022-12-09T03:19:41.030Z,5.10
2022-12-09T03:20:46.300Z,5.22
2022-12-09T03:21:50.066Z,5.30
2022-12-09T03:22:56.676Z,5.18
2022-12-09T03:23:59.928Z,5.22
2022-12-09T03:25:20.232Z,5.72
2022-12-09T03:26:27.481Z,6.05
2022-12-09T03:27:37.132Z,5.55
2022-12-09T03:28:44.447Z,5.78
2022-12-09T03:29:49.428Z,5.70
2022-12-09T03:30:55.455Z,5.05
2022-12-09T03:31:59.743Z,6.10
2022-12-09T03:33:04.436Z,5.47
2022-12-09T03:34:10.246Z,5.70
2022-12-09T03:35:19.433Z,4.78
2022-12-09T03:36:23.751Z,4.50
2022-12-09T03:37:27.568Z,6.13
2022-12-09T03:38:37.293Z,5.72
2022-12-09T03:39:40.805Z,5.10
2022-12-09T03:40:45.224Z,5.80
2022-12-09T03:41:55.670Z,6.25
2022-12-09T03:43:03.288Z,29.27
2022-12-09T03:44:12.639Z,9.75
2022-12-09T03:45:19.596Z,5.85
2022-12-09T03:46:22.946Z,6.82
2022-12-09T03:47:24.985Z,5.43
2022-12-09T03:48:28.531Z,5.68
2022-12-09T03:49:30.625Z,5.80
2022-12-09T03:50:47.928Z,5.82
2022-12-09T03:52:05.154Z,6.43
2022-12-09T03:53:13.023Z,5.70
2022-12-09T03:54:45.548Z,6.28
2022-12-09T03:56:22.351Z,5.53
2022-12-09T03:57:25.054Z,6.93
2022-12-09T03:58:31.576Z,5.72
2022-12-09T03:59:35.996Z,6.38
2022-12-09T04:00:39.452Z,5.68
2022-12-09T04:01:46.164Z,5.70
2022-12-09T04:02:48.474Z,5.43
2022-12-09T04:03:55.311Z,5.45
2022-12-09T04:04:57.641Z,5.25
2022-12-09T04:05:59.881Z,5.80
2022-12-09T04:07:04.003Z,5.45
2022-12-09T04:08:07.298Z,5.90
2022-12-09T04:09:12.145Z,5.15
2022-12-09T04:10:14.355Z,5.45
2022-12-09T04:11:17.774Z,5.40
2022-12-09T04:12:19.529Z,5.93
2022-12-09T04:13:21.123Z,5.85
2022-12-09T04:14:23.066Z,6.07
2022-12-09T04:15:27.503Z,6.03
2022-12-09T04:16:31.265Z,6.20
2022-12-09T04:17:33.634Z,6.20
2022-12-09T04:18:35.991Z,7.00
2022-12-09T04:19:38.256Z,6.28
2022-12-09T04:20:41.967Z,5.70
2022-12-09T04:21:44.826Z,5.90
2022-12-09T04:22:48.015Z,5.53
2022-12-09T04:23:51.587Z,5.63
2022-12-09T04:24:54.204Z,6.03
2022-12-09T04:25:56.022Z,5.40
2022-12-09T04:26:58.882Z,5.85
2022-12-09T04:28:01.162Z,5.10
2022-12-09T04:29:03.191Z,5.38
2022-12-09T04:30:06.619Z,6.80
2022-12-09T04:31:17.461Z,5.57
2022-12-09T04:32:19.591Z,6.15
2022-12-09T04:33:24.092Z,5.95
2022-12-09T04:34:26.445Z,5.60
2022-12-09T04:35:29.416Z,6.15
2022-12-09T04:36:32.982Z,5.80
2022-12-09T04:37:34.931Z,5.43
2022-12-09T04:38:38.053Z,5.60
2022-12-09T04:39:41.925Z,5.43
2022-12-09T04:40:43.703Z,5.80
2022-12-09T04:41:46.436Z,6.40
2022-12-09T04:42:48.194Z,6.15
2022-12-09T04:43:49.920Z,5.90
2022-12-09T04:44:53.160Z,5.53
2022-12-09T04:45:55.215Z,6.25
2022-12-09T04:46:57.073Z,6.30
2022-12-09T04:47:59.574Z,6.32
2022-12-09T04:49:01.846Z,5.78
2022-12-09T04:50:05.204Z,6.07
2022-12-09T04:51:09.742Z,6.68
2022-12-09T04:52:13.819Z,6.53
2022-12-09T04:53:16.343Z,6.88
2022-12-09T04:54:21.321Z,7.22
2022-12-09T04:55:23.182Z,7.47
2022-12-09T04:56:25.590Z,7.13
2022-12-09T04:57:27.810Z,7.35
2022-12-09T04:58:34.342Z,6.30
2022-12-09T04:59:36.272Z,7.13
2022-12-09T05:00:38.291Z,6.75
2022-12-09T05:01:40.994Z,6.80
2022-12-09T05:02:43.661Z,6.25
2022-12-09T05:03:51.085Z,7.43
2022-12-09T05:04:53.273Z,7.38
2022-12-09T05:05:55.789Z,7.25
2022-12-09T05:06:57.930Z,6.55
2022-12-09T05:08:00.320Z,6.15
2022-12-09T05:09:02.778Z,6.95
2022-12-09T05:10:07.125Z,6.70
2022-12-09T05:11:10.101Z,6.65
2022-12-09T05:12:12.625Z,6.90
2022-12-09T05:13:15.662Z,7.38
2022-12-09T05:14:18.071Z,7.63
2022-12-09T05:15:20.742Z,7.35
2022-12-09T05:16:23.253Z,7.63
2022-12-09T05:17:25.490Z,8.15
2022-12-09T05:18:28.989Z,9.23
2022-12-09T05:19:32.804Z,8.10
2022-12-09T05:20:34.897Z,8.57
2022-12-09T05:21:37.445Z,7.95
2022-12-09T05:22:39.055Z,7.68
2022-12-09T05:23:41.732Z,8.38
2022-12-09T05:24:44.518Z,8.52
2022-12-09T05:25:46.540Z,8.20
2022-12-09T05:26:49.577Z,8.45
2022-12-09T05:27:54.092Z,7.85
2022-12-09T05:28:56.101Z,8.65
2022-12-09T05:29:58.300Z,8.85
2022-12-09T05:31:15.833Z,8.02
2022-12-09T05:32:20.741Z,7.55
2022-12-09T05:33:25.976Z,8.13
2022-12-09T05:34:28.326Z,8.07
2022-12-09T05:35:32.151Z,8.88
2022-12-09T05:36:34.800Z,9.13
2022-12-09T05:37:36.820Z,8.15
2022-12-09T05:38:39.753Z,8.95
2022-12-09T05:39:42.429Z,9.88
2022-12-09T05:40:44.878Z,9.30
2022-12-09T05:41:47.434Z,9.05
2022-12-09T05:42:50.184Z,9.52
2022-12-09T05:43:52.641Z,9.88
2022-12-09T05:44:57.140Z,9.70
2022-12-09T05:46:03.086Z,9.63
2022-12-09T05:47:05.967Z,9.15
2022-12-09T05:48:09.330Z,7.90
2022-12-09T05:49:11.881Z,9.60
2022-12-09T05:50:15.100Z,9.00
2022-12-09T05:51:23.106Z,10.95
2022-12-09T05:52:26.738Z,10.48
2022-12-09T05:53:29.289Z,10.80
2022-12-09T05:54:33.928Z,9.85
2022-12-09T05:55:42.111Z,10.10
2022-12-09T05:56:48.038Z,9.70
2022-12-09T05:57:50.527Z,10.90
2022-12-09T05:58:53.508Z,10.65
2022-12-09T05:59:57.955Z,10.27
2022-12-09T06:01:08.164Z,11.43
2022-12-09T06:02:11.023Z,14.18
2022-12-09T06:03:14.552Z,12.00
2022-12-09T06:04:17.883Z,10.32
2022-12-09T06:05:20.212Z,11.45
2022-12-09T06:06:34.236Z,13.05
2022-12-09T06:07:36.684Z,12.52
2022-12-09T06:08:41.154Z,11.85
2022-12-09T06:09:45.932Z,11.38
2022-12-09T06:10:48.812Z,10.57
2022-12-09T06:11:50.842Z,8.88
2022-12-09T06:13:03.714Z,8.77
2022-12-09T06:14:08.927Z,14.98
2022-12-09T06:15:14.461Z,17.17
2022-12-09T06:16:22.436Z,15.15
2022-12-09T06:17:24.851Z,18.05
2022-12-09T06:18:28.242Z,17.20
2022-12-09T06:19:32.093Z,16.85
2022-12-09T06:20:35.496Z,14.90
2022-12-09T06:21:39.754Z,14.20
2022-12-09T06:22:41.880Z,14.82
2022-12-09T06:23:48.296Z,15.55
2022-12-09T06:24:55.594Z,14.50
2022-12-09T06:25:59.544Z,11.18
2022-12-09T06:27:04.656Z,10.48
2022-12-09T06:28:08.675Z,11.35
2022-12-09T06:29:10.561Z,11.80
2022-12-09T06:30:13.707Z,11.57
2022-12-09T06:31:15.732Z,11.10
2022-12-09T06:32:20.315Z,9.45
2022-12-09T06:33:53.005Z,11.07
2022-12-09T06:34:44.917Z,11.73
2022-12-09T06:35:50.796Z,12.77
2022-12-09T06:36:53.161Z,14.50
2022-12-09T06:37:57.699Z,13.93
2022-12-09T06:39:10.127Z,13.82
2022-12-09T06:40:15.119Z,13.50
2022-12-09T06:41:17.826Z,16.50
2022-12-09T06:42:20.134Z,15.00
2022-12-09T06:43:22.375Z,16.00
2022-12-09T06:44:25.237Z,14.25
2022-12-09T06:45:34.333Z,16.55
2022-12-09T06:46:37.963Z,14.45
2022-12-09T06:47:42.988Z,13.07
2022-12-09T06:48:47.075Z,12.55
2022-12-09T06:49:50.944Z,12.18
2022-12-09T06:50:55.020Z,12.30
2022-12-09T06:51:58.269Z,12.13
2022-12-09T06:53:04.296Z,13.07
2022-12-09T06:54:07.814Z,11.98
2022-12-09T06:55:11.784Z,11.90
2022-12-09T06:56:16.392Z,11.55
2022-12-09T06:57:17.941Z,12.18
2022-12-09T06:58:19.859Z,11.80
2022-12-09T06:59:25.652Z,11.02
2022-12-09T07:00:28.463Z,12.13
2022-12-09T07:01:30.791Z,13.05
2022-12-09T07:02:36.975Z,15.00
2022-12-09T07:03:44.290Z,14.13
2022-12-09T07:04:47.866Z,13.70
2022-12-09T07:05:50.862Z,14.73
2022-12-09T07:06:58.427Z,16.65
2022-12-09T07:08:01.335Z,14.27
2022-12-09T07:09:11.304Z,15.45
2022-12-09T07:10:13.872Z,17.75
2022-12-09T07:11:16.775Z,18.17
2022-12-09T07:12:19.647Z,17.85
2022-12-09T07:13:22.326Z,16.50
2022-12-09T07:14:24.155Z,20.35
2022-12-09T07:15:26.504Z,19.98
2022-12-09T07:16:29.341Z,17.05
2022-12-09T07:17:31.861Z,19.25
2022-12-09T07:18:34.416Z,20.30
2022-12-09T07:19:36.551Z,19.95
2022-12-09T07:20:41.171Z,20.83
2022-12-09T07:21:43.723Z,17.20
2022-12-09T07:22:46.586Z,19.13
2022-12-09T07:23:49.887Z,18.17
2022-12-09T07:24:52.849Z,18.80
2022-12-09T07:26:02.361Z,17.52
2022-12-09T07:27:18.621Z,18.25
2022-12-09T07:28:23.339Z,18.23
2022-12-09T07:29:28.241Z,19.30
2022-12-09T07:30:40.259Z,17.45
2022-12-09T07:31:42.947Z,18.15
2022-12-09T07:32:45.176Z,17.15
2022-12-09T07:33:47.778Z,18.77
2022-12-09T07:34:52.682Z,18.55
2022-12-09T07:36:01.093Z,21.58
2022-12-09T07:37:03.960Z,18.13
2022-12-09T07:38:06.161Z,21.05
2022-12-09T07:39:12.723Z,21.30
2022-12-09T07:40:15.550Z,22.85
2022-12-09T07:41:18.803Z,32.17
2022-12-09T07:42:21.075Z,34.05
2022-12-09T07:43:23.104Z,33.05
2022-12-09T07:44:28.162Z,28.33
2022-12-09T07:45:34.241Z,30.10
2022-12-09T07:46:36.462Z,31.23
2022-12-09T07:47:38.517Z,33.55
2022-12-09T07:48:41.747Z,31.52
2022-12-09T07:49:44.590Z,30.27
2022-12-09T07:50:47.400Z,26.02
2022-12-09T07:51:52.275Z,20.75
2022-12-09T07:52:54.890Z,20.90
2022-12-09T07:53:57.164Z,18.92
2022-12-09T07:55:01.535Z,17.33
2022-12-09T07:56:15.044Z,16.42
2022-12-09T07:57:17.094Z,15.80
2022-12-09T07:58:18.749Z,16.10
2022-12-09T07:59:20.603Z,17.80
2022-12-09T08:00:25.837Z,18.13
2022-12-09T08:01:30.211Z,17.08
2022-12-09T08:02:33.636Z,16.50
2022-12-09T08:03:36.049Z,15.82
2022-12-09T08:04:38.744Z,13.18
2022-12-09T08:05:49.053Z,12.30
2022-12-09T08:06:51.092Z,12.32
2022-12-09T08:07:54.877Z,12.05
2022-12-09T08:09:04.209Z,13.68
2022-12-09T08:10:09.300Z,15.93
2022-12-09T08:11:14.620Z,16.52
2022-12-09T08:12:20.190Z,16.55
2022-12-09T08:13:22.334Z,14.63
2022-12-09T08:14:25.823Z,14.10
2022-12-09T08:15:27.986Z,14.27
2022-12-09T08:16:29.972Z,14.65
2022-12-09T08:17:33.545Z,17.17
2022-12-09T08:18:36.640Z,18.88
2022-12-09T08:19:39.656Z,19.42
2022-12-09T08:20:41.933Z,16.55
2022-12-09T08:21:45.549Z,16.83
2022-12-09T08:22:52.564Z,15.32
2022-12-09T08:24:01.493Z,15.32
2022-12-09T08:25:04.712Z,17.08
2022-12-09T08:26:07.637Z,20.63
2022-12-09T08:27:14.206Z,16.48
2022-12-09T08:28:19.440Z,24.80
2022-12-09T08:29:21.528Z,19.90
2022-12-09T08:30:26.615Z,17.20
2022-12-09T08:31:30.936Z,14.73
2022-12-09T08:32:36.529Z,13.65
2022-12-09T08:33:39.838Z,13.30
2022-12-09T08:34:43.513Z,12.88
2022-12-09T08:35:45.213Z,23.85
2022-12-09T08:36:47.703Z,20.38
2022-12-09T08:37:49.793Z,21.52
2022-12-09T08:38:58.804Z,19.13
2022-12-09T08:40:01.540Z,18.30
2022-12-09T08:41:35.802Z,13.50
2022-12-09T08:42:38.613Z,15.80
2022-12-09T08:43:44.282Z,19.23
2022-12-09T08:44:47.235Z,19.33
2022-12-09T08:45:49.323Z,19.45
2022-12-09T08:46:52.915Z,14.10
2022-12-09T08:47:58.784Z,14.75
2022-12-09T08:49:04.370Z,12.95
2022-12-09T08:50:08.710Z,13.02
2022-12-09T08:51:12.513Z,14.38
2022-12-09T08:52:14.931Z,15.32
2022-12-09T08:53:17.219Z,14.43
2022-12-09T08:54:21.598Z,14.57
2022-12-09T08:55:27.988Z,19.25
2022-12-09T08:56:32.059Z,24.42
2022-12-09T08:57:36.112Z,20.05
2022-12-09T08:58:38.318Z,15.57
2022-12-09T08:59:45.024Z,13.23
2022-12-09T09:00:49.114Z,14.82
2022-12-09T09:01:51.924Z,13.98
2022-12-09T09:02:55.593Z,14.10
2022-12-09T09:03:59.453Z,14.85
2022-12-09T09:05:01.705Z,16.77
2022-12-09T09:06:10.408Z,14.60
2022-12-09T09:07:14.875Z,13.57
2022-12-09T09:08:22.058Z,13.32
2022-12-09T09:09:24.419Z,12.38
2022-12-09T09:10:29.753Z,13.45
2022-12-09T09:11:32.504Z,11.93
2022-12-09T09:12:42.124Z,11.70
2022-12-09T09:13:51.795Z,12.95
2022-12-09T09:14:54.944Z,12.50
2022-12-09T09:15:59.349Z,11.82
2022-12-09T09:17:01.263Z,11.65
2022-12-09T09:18:04.052Z,12.07
2022-12-09T09:19:08.772Z,13.27
2022-12-09T09:20:11.475Z,14.77
2022-12-09T09:21:15.404Z,17.83
2022-12-09T09:22:17.691Z,16.58
2022-12-09T09:23:19.669Z,18.00
2022-12-09T09:24:27.697Z,19.40
2022-12-09T09:25:30.598Z,21.05
2022-12-09T09:26:32.978Z,21.15
2022-12-09T09:27:36.668Z,20.45
2022-12-09T09:28:39.295Z,19.00
2022-12-09T09:29:41.757Z,17.10
2022-12-09T09:30:43.902Z,17.98
2022-12-09T09:31:57.521Z,16.98
2022-12-09T09:33:00.035Z,18.95
2022-12-09T09:34:02.902Z,27.65
2022-12-09T09:35:09.502Z,34.35
2022-12-09T09:36:18.915Z,27.08
2022-12-09T09:37:23.822Z,28.17
2022-12-09T09:38:28.879Z,26.50
2022-12-09T09:39:30.727Z,22.73
2022-12-09T09:40:33.892Z,20.35
2022-12-09T09:41:51.087Z,20.60
2022-12-09T09:42:56.921Z,17.73
2022-12-09T09:44:02.331Z,19.38
2022-12-09T09:45:12.607Z,26.60
2022-12-09T09:46:31.801Z,27.23
2022-12-09T09:47:43.345Z,27.52
2022-12-09T09:48:48.605Z,24.30
2022-12-09T09:49:58.116Z,24.27
2022-12-09T09:51:13.786Z,22.90
2022-12-09T09:52:21.267Z,22.60
2022-12-09T09:53:32.886Z,22.67
2022-12-09T09:54:35.646Z,22.33
2022-12-09T09:55:52.591Z,23.52
2022-12-09T09:57:01.582Z,22.80
2022-12-09T09:58:23.114Z,22.63
2022-12-09T10:00:26.987Z,28.35
2022-12-09T10:01:39.604Z,27.38
2022-12-09T10:02:52.520Z,28.55
2022-12-09T10:04:22.915Z,26.45
2022-12-09T10:05:43.791Z,20.48
2022-12-09T10:06:45.925Z,18.58
2022-12-09T10:08:28.027Z,18.48
2022-12-09T10:09:39.363Z,18.45
2022-12-09T10:10:58.596Z,15.45
2022-12-09T10:12:22.872Z,17.83
2022-12-09T10:13:45.233Z,17.95
2022-12-09T10:15:28.597Z,17.13
2022-12-09T10:16:42.602Z,14.45
2022-12-09T10:17:56.145Z,14.60
2022-12-09T10:19:19.771Z,12.68
2022-12-09T10:20:29.569Z,13.65
2022-12-09T10:21:33.461Z,14.43
2022-12-09T10:22:47.367Z,13.65
2022-12-09T10:23:50.748Z,12.10
2022-12-09T10:24:58.289Z,13.68
2022-12-09T10:26:05.048Z,13.73
2022-12-09T10:27:26.496Z,12.93
2022-12-09T10:28:36.490Z,12.43
2022-12-09T10:29:55.911Z,10.75
2022-12-09T10:30:58.189Z,12.25
2022-12-09T10:32:00.917Z,10.38
2022-12-09T10:33:08.016Z,11.55
2022-12-09T10:34:18.832Z,10.70
2022-12-09T10:35:28.801Z,9.52
2022-12-09T10:36:35.704Z,10.15
2022-12-09T10:37:39.613Z,10.35
2022-12-09T10:38:44.065Z,10.05
2022-12-09T10:39:49.113Z,10.60
2022-12-09T10:41:03.705Z,11.50
2022-12-09T10:42:34.604Z,10.77
2022-12-09T10:43:41.954Z,11.18
2022-12-09T10:44:43.905Z,11.05
2022-12-09T10:46:17.213Z,10.02
2022-12-09T10:47:29.490Z,10.50
2022-12-09T10:48:53.461Z,10.45
2022-12-09T10:49:58.444Z,10.55
2022-12-09T10:51:05.055Z,10.75
2022-12-09T10:52:07.841Z,11.50
2022-12-09T10:53:15.059Z,10.98
2022-12-09T10:54:25.060Z,11.63
2022-12-09T10:55:52.071Z,10.75
2022-12-09T10:57:12.678Z,11.32
2022-12-09T10:58:19.738Z,10.75
2022-12-09T10:59:28.596Z,10.82
2022-12-09T11:00:34.805Z,11.07
2022-12-09T11:02:02.031Z,11.30
2022-12-09T11:03:05.633Z,11.50
2022-12-09T11:04:15.126Z,10.80
2022-12-09T11:05:24.693Z,11.68
2022-12-09T11:07:50.606Z,12.77
2022-12-09T11:08:56.795Z,12.15
2022-12-09T11:09:58.946Z,11.93
2022-12-09T11:11:01.952Z,10.80
2022-12-09T11:12:06.743Z,12.50
2022-12-09T11:13:15.981Z,11.90
2022-12-09T11:14:23.292Z,12.82
2022-12-09T11:15:36.036Z,12.80
2022-12-09T11:16:38.522Z,11.63
2022-12-09T11:17:56.067Z,11.35
2022-12-09T11:18:58.787Z,13.02
2022-12-09T11:20:07.978Z,12.02
2022-12-09T11:21:30.069Z,12.32
2022-12-09T11:22:39.656Z,11.52
2022-12-09T11:23:58.811Z,12.93
2022-12-09T11:25:27.436Z,13.30
2022-12-09T11:26:36.669Z,12.43
2022-12-09T11:27:57.049Z,14.25
2022-12-09T11:29:22.171Z,13.35
2022-12-09T11:30:26.862Z,13.18
2022-12-09T11:31:34.132Z,19.08
2022-12-09T11:32:55.742Z,20.77
2022-12-09T11:34:37.829Z,14.73
2022-12-09T11:35:46.046Z,13.57
2022-12-09T11:36:58.124Z,12.88
2022-12-09T11:38:12.955Z,12.88
2022-12-09T11:39:19.590Z,12.45
2022-12-09T11:40:23.876Z,11.93
2022-12-09T11:41:45.751Z,13.88
2022-12-09T11:42:52.784Z,16.40
2022-12-09T11:43:56.872Z,17.70
2022-12-09T11:45:06.696Z,13.25
2022-12-09T11:46:22.229Z,13.88
2022-12-09T11:47:57.167Z,13.02
2022-12-09T11:48:57.613Z,13.55
2022-12-09T11:50:21.226Z,13.85
2022-12-09T11:51:33.397Z,12.32
2022-12-09T11:52:35.275Z,13.23
2022-12-09T11:53:41.373Z,14.45
2022-12-09T11:55:10.832Z,14.18
2022-12-09T11:56:18.166Z,11.82
2022-12-09T11:57:44.277Z,13.35
2022-12-09T11:58:55.932Z,13.85
2022-12-09T12:00:02.304Z,12.77
2022-12-09T12:01:26.917Z,12.27
2022-12-09T12:02:54.783Z,13.80
2022-12-09T12:04:01.728Z,13.10
2022-12-09T12:05:21.611Z,12.93
2022-12-09T12:06:41.496Z,12.57
2022-12-09T12:07:59.587Z,13.27
2022-12-09T12:09:08.059Z,12.63
2022-12-09T12:10:19.510Z,12.30
2022-12-09T12:11:27.911Z,13.27
2022-12-09T12:12:48.158Z,13.40
2022-12-09T12:13:54.350Z,13.95
2022-12-09T12:15:01.937Z,13.07
2022-12-09T12:16:39.725Z,13.27
2022-12-09T12:17:45.031Z,12.98
2022-12-09T12:19:13.935Z,12.60
2022-12-09T12:20:16.327Z,16.25
2022-12-09T12:21:40.070Z,18.60
2022-12-09T12:23:05.752Z,15.52
2022-12-09T12:24:41.505Z,14.15
2022-12-09T12:25:48.946Z,14.43
2022-12-09T12:27:05.911Z,13.98
2022-12-09T12:28:23.583Z,13.98
2022-12-09T12:29:40.844Z,14.68
2022-12-09T12:30:54.003Z,16.00
2022-12-09T12:32:24.684Z,14.85
2022-12-09T12:34:00.852Z,13.68
2022-12-09T12:35:21.515Z,16.25
2022-12-09T12:36:49.202Z,15.60
2022-12-09T12:38:10.702Z,14.77
2022-12-09T12:39:33.004Z,14.65
2022-12-09T12:40:55.082Z,15.27
2022-12-09T12:42:29.072Z,20.92
2022-12-09T12:44:03.633Z,21.48
2022-12-09T12:45:42.517Z,23.55
2022-12-09T12:47:16.683Z,37.97
2022-12-09T12:48:30.368Z,45.28
2022-12-09T12:49:38.994Z,31.05
2022-12-09T12:50:56.271Z,23.45
2022-12-09T12:54:23.862Z,23.30
2022-12-09T12:55:44.499Z,18.00
2022-12-09T12:56:49.141Z,15.40
2022-12-09T12:57:59.991Z,16.42
2022-12-09T12:59:23.885Z,15.18
2022-12-09T13:00:33.321Z,16.17
2022-12-09T13:02:02.510Z,17.33
2022-12-09T13:03:27.149Z,15.88
2022-12-09T13:04:40.122Z,16.65
2022-12-09T13:05:44.750Z,16.33
2022-12-09T13:07:11.825Z,16.25
2022-12-09T13:08:46.374Z,17.20
2022-12-09T13:09:55.557Z,18.05
2022-12-09T13:11:04.801Z,18.45
2022-12-09T13:12:14.130Z,17.50
2022-12-09T13:13:38.672Z,17.40
2022-12-09T13:14:52.896Z,17.35
2022-12-09T13:16:00.199Z,17.23
2022-12-09T13:17:07.788Z,16.35
2022-12-09T13:18:13.184Z,16.80
2022-12-09T13:19:23.892Z,17.33
2022-12-09T13:20:39.482Z,17.17
2022-12-09T13:21:41.577Z,17.80
2022-12-09T13:22:58.298Z,16.27
2022-12-09T13:24:08.654Z,16.73
2022-12-09T13:25:32.264Z,17.45
2022-12-09T13:26:49.672Z,17.98
2022-12-09T13:28:07.932Z,17.08
2022-12-09T13:29:30.194Z,19.95
2022-12-09T13:30:49.645Z,18.30
2022-12-09T13:32:15.108Z,18.40
2022-12-09T13:33:35.021Z,16.30
2022-12-09T13:34:40.641Z,17.83
2022-12-09T13:35:54.967Z,16.88
2022-12-09T13:36:57.106Z,15.90
2022-12-09T13:38:00.093Z,16.58
2022-12-09T13:39:01.744Z,17.38
2022-12-09T13:40:27.693Z,16.65
2022-12-09T13:41:29.501Z,19.45
2022-12-09T13:42:50.339Z,16.77
2022-12-09T13:44:11.151Z,14.73
2022-12-09T13:45:45.119Z,17.50
2022-12-09T13:46:47.507Z,17.33
2022-12-09T13:47:49.874Z,17.67
2022-12-09T13:48:53.944Z,20.98
2022-12-09T13:50:02.456Z,20.88
2022-12-09T13:51:04.547Z,18.27
2022-12-09T13:52:06.352Z,18.35
2022-12-09T13:53:29.536Z,17.75
2022-12-09T13:54:31.492Z,18.77
2022-12-09T13:55:47.833Z,18.60
2022-12-09T13:57:25.527Z,17.15
2022-12-09T13:58:46.489Z,17.85
2022-12-09T13:59:52.592Z,17.27
2022-12-09T14:01:04.888Z,18.42
2022-12-09T14:02:15.746Z,17.58
2022-12-09T14:03:30.812Z,17.60
2022-12-09T14:04:36.648Z,17.77
2022-12-09T14:05:39.147Z,18.48
2022-12-09T14:06:47.035Z,18.27
2022-12-09T14:07:53.684Z,17.55
2022-12-09T14:09:01.022Z,18.60
2022-12-09T14:10:05.083Z,18.10
2022-12-09T14:11:38.146Z,17.88
2022-12-09T14:12:44.258Z,19.08
2022-12-09T14:13:46.201Z,19.20
2022-12-09T14:14:51.482Z,21.25
2022-12-09T14:16:30.199Z,19.13
2022-12-09T14:17:40.965Z,19.30
2022-12-09T14:18:44.440Z,20.25
2022-12-09T14:19:52.015Z,17.48
2022-12-09T14:21:19.665Z,23.05
2022-12-09T14:22:22.288Z,20.33
2022-12-09T14:23:24.167Z,19.63
2022-12-09T14:24:30.198Z,18.35
2022-12-09T14:25:34.980Z,21.00
2022-12-09T14:26:58.665Z,21.25
2022-12-09T14:28:12.485Z,21.90
2022-12-09T14:29:43.328Z,19.70
2022-12-09T14:31:03.419Z,20.60
2022-12-09T14:32:23.045Z,20.55
2022-12-09T14:33:38.741Z,23.65
2022-12-09T14:34:43.147Z,23.58
2022-12-09T14:35:49.185Z,24.05
2022-12-09T14:37:00.469Z,42.85
2022-12-09T14:38:27.447Z,22.65
2022-12-09T14:39:37.053Z,20.13
2022-12-09T14:41:31.847Z,22.20
2022-12-09T14:42:55.026Z,21.05
2022-12-09T14:44:18.186Z,21.63
2022-12-09T14:45:38.016Z,20.52
2022-12-09T14:46:42.352Z,20.63
2022-12-09T14:47:47.751Z,21.35
2022-12-09T14:49:00.649Z,22.17
2022-12-09T14:50:23.743Z,21.95
2022-12-09T14:51:37.411Z,21.40
2022-12-09T14:52:50.192Z,23.83
2022-12-09T14:54:13.250Z,26.85